createdAt,value
2019-04-20T00:00:19.097Z,64.39
2019-04-20T00:01:25.482Z,65.23
2019-04-20T00:02:21.754Z,65.00
2019-04-20T00:03:18.219Z,64.79
2019-04-20T00:04:23.423Z,64.69
2019-04-20T00:05:19.111Z,65.31
2019-04-20T00:06:19.384Z,64.83
2019-04-20T00:07:18.750Z,64.93
2019-04-20T00:08:23.190Z,65.23
2019-04-20T00:09:24.658Z,64.72
2019-04-20T00:10:21.593Z,64.11
2019-04-20T00:11:27.506Z,63.53
2019-04-20T00:12:29.843Z,63.60
2019-04-20T00:13:30.276Z,64.11
2019-04-20T00:14:24.033Z,65.16
2019-04-20T00:15:19.713Z,65.23
2019-04-20T00:16:18.896Z,64.96
2019-04-20T00:17:17.932Z,65.47
2019-04-20T00:18:19.176Z,65.54
2019-04-20T00:19:26.467Z,64.86
2019-04-20T00:20:24.142Z,65.26
2019-04-20T00:21:19.259Z,65.06
2019-04-20T00:22:18.777Z,65.26
2019-04-20T00:23:22.885Z,65.26
2019-04-20T00:24:24.762Z,65.23
2019-04-20T00:25:20.906Z,65.13
2019-04-20T00:26:32.315Z,65.57
2019-04-20T00:27:44.434Z,65.26
2019-04-20T00:28:37.547Z,65.47
2019-04-20T00:29:35.303Z,65.26
2019-04-20T00:30:43.126Z,66.01
2019-04-20T00:31:35.373Z,66.01
2019-04-20T00:32:34.285Z,66.83
2019-04-20T00:33:31.110Z,67.13
2019-04-20T00:34:26.696Z,67.24
2019-04-20T00:35:18.896Z,67.24
2019-04-20T00:36:18.027Z,67.03
2019-04-20T00:37:19.158Z,66.52
2019-04-20T00:38:18.080Z,67.13
2019-04-20T00:39:19.781Z,66.72
2019-04-20T00:40:17.667Z,67.44
2019-04-20T00:41:20.338Z,67.34
2019-04-20T00:42:18.493Z,67.13
2019-04-20T00:43:21.025Z,66.62
2019-04-20T00:44:24.288Z,67.54
2019-04-20T00:45:25.725Z,67.65
2019-04-20T00:46:26.416Z,67.95
2019-04-20T00:47:30.443Z,67.68
2019-04-20T00:48:28.442Z,68.19
2019-04-20T00:49:35.076Z,67.88
2019-04-20T00:50:39.277Z,68.39
2019-04-20T00:51:35.221Z,68.29
2019-04-20T00:52:31.198Z,68.49
2019-04-20T00:53:26.868Z,68.29
2019-04-20T00:54:18.448Z,67.78
2019-04-20T00:55:17.446Z,67.78
2019-04-20T00:56:18.245Z,67.07
2019-04-20T00:57:25.902Z,67.78
2019-04-20T00:58:25.951Z,67.98
2019-04-20T00:59:32.076Z,68.01
2019-04-20T01:00:39.769Z,68.39
2019-04-20T01:01:40.712Z,67.68
2019-04-20T01:02:32.646Z,67.50
2019-04-20T01:03:37.734Z,67.91
2019-04-20T01:04:37.743Z,67.57
2019-04-20T01:05:35.399Z,67.71
2019-04-20T01:06:31.800Z,68.52
2019-04-20T01:07:29.826Z,68.63
2019-04-20T01:08:19.114Z,69.38
2019-04-20T01:09:18.241Z,68.87
2019-04-20T01:10:17.385Z,69.07
2019-04-20T01:11:28.818Z,69.89
2019-04-20T01:12:23.293Z,70.26
2019-04-20T01:13:22.863Z,70.26
2019-04-20T01:14:30.256Z,70.47
2019-04-20T01:15:28.104Z,69.85
2019-04-20T01:16:30.278Z,69.65
2019-04-20T01:17:18.193Z,69.89
2019-04-20T01:18:17.181Z,70.16
2019-04-20T01:19:19.308Z,69.89
2019-04-20T01:20:17.158Z,70.20
2019-04-20T01:21:21.544Z,70.50
2019-04-20T01:22:22.378Z,69.68
2019-04-20T01:23:21.289Z,69.79
2019-04-20T01:24:24.875Z,70.29
2019-04-20T01:25:28.325Z,70.33
2019-04-20T01:26:20.894Z,70.61
2019-04-20T01:27:32.582Z,70.03
2019-04-20T01:28:35.588Z,70.29
2019-04-20T01:29:29.213Z,70.20
2019-04-20T01:30:25.146Z,69.99
2019-04-20T01:31:27.487Z,70.50
2019-04-20T01:32:26.855Z,69.68
2019-04-20T01:33:31.868Z,70.09
2019-04-20T01:34:34.595Z,70.20
2019-04-20T01:35:35.652Z,70.74
2019-04-20T01:36:37.020Z,70.84
2019-04-20T01:37:31.719Z,71.45
2019-04-20T01:38:35.558Z,71.56
2019-04-20T01:39:26.269Z,70.64
2019-04-20T01:40:19.113Z,71.66
2019-04-20T01:41:18.147Z,71.56
2019-04-20T01:42:17.239Z,71.77
2019-04-20T01:43:16.895Z,71.15
2019-04-20T01:44:23.958Z,71.66
2019-04-20T01:45:26.780Z,71.15
2019-04-20T01:46:22.036Z,71.66
2019-04-20T01:47:19.018Z,71.45
2019-04-20T01:48:23.940Z,71.56
2019-04-20T01:49:22.269Z,71.56
2019-04-20T01:50:23.036Z,71.39
2019-04-20T01:51:24.628Z,71.86
2019-04-20T01:52:25.568Z,72.31
2019-04-20T01:53:29.292Z,71.25
2019-04-20T01:54:32.681Z,71.66
2019-04-20T01:55:35.845Z,71.56
2019-04-20T01:56:31.138Z,72.17
2019-04-20T01:57:22.645Z,72.20
2019-04-20T01:58:42.206Z,71.80
2019-04-20T01:59:30.931Z,71.18
2019-04-20T02:00:23.348Z,72.20
2019-04-20T02:01:22.909Z,72.41
2019-04-20T02:02:21.191Z,72.20
2019-04-20T02:03:22.749Z,72.00
2019-04-20T02:04:25.042Z,72.92
2019-04-20T02:05:24.760Z,73.23
2019-04-20T02:06:20.171Z,72.65
2019-04-20T02:07:18.416Z,73.54
2019-04-20T02:08:21.406Z,73.54
2019-04-20T02:09:21.142Z,73.54
2019-04-20T02:10:19.991Z,72.96
2019-04-20T02:11:23.133Z,73.36
2019-04-20T02:12:22.306Z,73.78
2019-04-20T02:13:17.553Z,73.33
2019-04-20T02:14:24.300Z,73.47
2019-04-20T02:15:27.834Z,73.36
2019-04-20T02:16:27.546Z,73.36
2019-04-20T02:17:27.878Z,73.36
2019-04-20T02:18:30.476Z,73.47
2019-04-20T02:19:30.449Z,73.98
2019-04-20T02:20:37.902Z,74.29
2019-04-20T02:21:33.771Z,74.08
2019-04-20T02:22:38.300Z,74.08
2019-04-20T02:23:31.557Z,73.98
2019-04-20T02:24:17.865Z,73.98
2019-04-20T02:25:16.422Z,74.32
2019-04-20T02:26:17.717Z,74.43
2019-04-20T02:27:19.699Z,74.02
2019-04-20T02:28:35.930Z,74.29
2019-04-20T02:29:39.937Z,74.19
2019-04-20T02:32:11.730Z,73.81
2019-04-20T02:32:55.936Z,74.12
2019-04-20T02:33:47.515Z,74.32
2019-04-20T02:34:55.347Z,74.32
2019-04-20T02:35:57.981Z,74.53
2019-04-20T02:36:58.837Z,74.32
2019-04-20T02:38:03.544Z,74.32
2019-04-20T02:40:50.786Z,74.63
2019-04-20T02:41:51.121Z,72.78
2019-04-20T02:42:51.454Z,74.05
2019-04-20T02:45:25.312Z,74.15
2019-04-20T02:45:47.103Z,74.36
2019-04-20T02:46:55.954Z,75.38
2019-04-20T02:48:51.814Z,75.49
2019-04-20T02:49:50.752Z,74.66
2019-04-20T02:50:52.961Z,74.15
2019-04-20T02:52:04.804Z,74.36
2019-04-20T02:54:02.252Z,74.36
2019-04-20T02:54:53.614Z,73.91
2019-04-20T02:55:55.503Z,74.26
2019-04-20T02:57:05.669Z,73.74
2019-04-20T02:57:53.027Z,74.57
2019-04-20T02:58:53.180Z,74.77
2019-04-20T03:00:03.183Z,74.77
2019-04-20T03:00:38.251Z,74.05
2019-04-20T03:01:36.465Z,74.15
2019-04-20T03:02:33.552Z,74.05
2019-04-20T03:03:30.164Z,74.57
2019-04-20T03:04:26.346Z,74.77
2019-04-20T03:05:29.495Z,73.33
2019-04-20T03:06:26.724Z,74.36
2019-04-20T03:07:31.673Z,74.05
2019-04-20T03:08:33.093Z,73.95
2019-04-20T03:09:41.795Z,73.85
2019-04-20T03:10:50.629Z,73.74
2019-04-20T03:11:48.508Z,73.54
2019-04-20T03:12:38.999Z,74.26
2019-04-20T03:13:37.006Z,73.74
2019-04-20T03:14:30.315Z,73.91
2019-04-20T03:15:37.909Z,74.53
2019-04-20T03:16:35.836Z,74.05
2019-04-20T03:17:38.985Z,73.54
2019-04-20T03:18:38.631Z,74.29
2019-04-20T03:19:35.872Z,74.66
2019-04-20T03:20:43.501Z,74.15
2019-04-20T03:21:37.785Z,74.19
2019-04-20T03:22:59.926Z,73.88
2019-04-20T03:23:48.001Z,74.08
2019-04-20T03:24:45.443Z,74.46
2019-04-20T03:25:40.581Z,74.49
2019-04-20T03:26:36.764Z,74.49
2019-04-20T03:27:33.220Z,75.42
2019-04-20T03:28:34.618Z,74.80
2019-04-20T03:29:40.937Z,75.73
2019-04-20T03:31:22.482Z,75.73
2019-04-20T03:34:05.833Z,75.52
2019-04-20T03:35:01.208Z,75.01
2019-04-20T03:35:43.370Z,75.11
2019-04-20T03:36:41.481Z,75.45
2019-04-20T03:37:44.169Z,75.97
2019-04-20T03:38:38.324Z,75.45
2019-04-20T03:39:31.362Z,74.22
2019-04-20T03:40:32.439Z,74.32
2019-04-20T03:41:25.453Z,75.45
2019-04-20T03:42:18.043Z,75.29
2019-04-20T03:43:15.944Z,75.80
2019-04-20T03:44:20.957Z,76.21
2019-04-20T03:45:19.308Z,76.10
2019-04-20T03:46:19.965Z,76.10
2019-04-20T03:47:26.870Z,76.28
2019-04-20T03:48:39.251Z,74.84
2019-04-20T03:49:42.522Z,74.74
2019-04-20T03:50:41.091Z,75.25
2019-04-20T03:51:43.288Z,75.15
2019-04-20T03:52:31.323Z,75.56
2019-04-20T03:53:35.441Z,75.45
2019-04-20T03:54:30.811Z,75.56
2019-04-20T03:55:36.974Z,75.97
2019-04-20T03:56:36.545Z,75.76
2019-04-20T03:57:34.375Z,75.66
2019-04-20T03:58:36.033Z,75.87
2019-04-20T03:59:39.548Z,76.62
2019-04-20T04:00:37.504Z,77.20
2019-04-20T04:02:12.086Z,76.79
2019-04-20T04:02:47.851Z,76.72
2019-04-20T04:03:47.297Z,77.34
2019-04-20T04:04:41.237Z,76.42
2019-04-20T04:05:34.151Z,76.68
2019-04-20T04:06:26.053Z,76.10
2019-04-20T04:07:26.538Z,76.42
2019-04-20T04:08:27.027Z,76.86
2019-04-20T04:09:29.119Z,77.06
2019-04-20T04:10:30.473Z,77.06
2019-04-20T04:11:31.496Z,76.86
2019-04-20T04:12:25.478Z,76.97
2019-04-20T04:13:16.819Z,77.17
2019-04-20T04:14:15.762Z,77.65
2019-04-20T04:15:15.231Z,76.17
2019-04-20T04:16:18.274Z,76.28
2019-04-20T04:17:22.418Z,75.45
2019-04-20T04:18:25.462Z,75.45
2019-04-20T04:19:21.501Z,75.35
2019-04-20T04:20:19.086Z,76.07
2019-04-20T04:21:21.992Z,76.28
2019-04-20T04:22:31.311Z,75.76
2019-04-20T04:23:35.711Z,75.97
2019-04-20T04:24:26.042Z,75.76
2019-04-20T04:25:28.774Z,75.70
2019-04-20T04:26:30.072Z,76.21
2019-04-20T04:27:38.598Z,76.82
2019-04-20T04:28:31.201Z,77.03
2019-04-20T04:29:38.033Z,75.80
2019-04-20T04:30:32.064Z,75.90
2019-04-20T04:31:39.100Z,76.42
2019-04-20T04:33:00.572Z,75.90
2019-04-20T04:34:34.722Z,76.21
2019-04-20T04:35:26.711Z,76.51
2019-04-20T04:36:30.016Z,76.97
2019-04-20T04:37:34.966Z,76.86
2019-04-20T04:38:37.436Z,76.62
2019-04-20T04:39:35.275Z,76.14
2019-04-20T04:40:42.206Z,75.80
2019-04-20T04:41:36.347Z,76.51
2019-04-20T04:42:42.275Z,76.00
2019-04-20T04:43:37.255Z,76.00
2019-04-20T04:44:30.297Z,75.90
2019-04-20T04:45:18.032Z,76.21
2019-04-20T04:46:14.846Z,76.00
2019-04-20T04:47:15.335Z,76.42
2019-04-20T04:48:21.385Z,76.62
2019-04-20T04:49:24.945Z,76.25
2019-04-20T04:50:21.086Z,76.35
2019-04-20T04:51:22.955Z,76.93
2019-04-20T04:52:22.941Z,76.93
2019-04-20T04:53:27.875Z,77.03
2019-04-20T04:54:25.916Z,76.62
2019-04-20T04:55:28.563Z,77.03
2019-04-20T04:56:19.747Z,76.51
2019-04-20T04:57:15.801Z,76.31
2019-04-20T04:58:14.923Z,76.31
2019-04-20T04:59:14.949Z,76.42
2019-04-20T05:00:19.997Z,76.31
2019-04-20T05:01:21.712Z,76.42
2019-04-20T05:02:15.995Z,76.31
2019-04-20T05:03:35.846Z,76.72
2019-04-20T05:04:33.914Z,76.51
2019-04-20T05:05:35.925Z,76.93
2019-04-20T05:06:31.322Z,77.03
2019-04-20T05:07:31.179Z,77.34
2019-04-20T05:08:24.076Z,77.65
2019-04-20T05:09:17.649Z,77.34
2019-04-20T05:10:15.911Z,77.65
2019-04-20T05:11:15.220Z,77.34
2019-04-20T05:12:19.670Z,77.71
2019-04-20T05:13:15.804Z,77.40
2019-04-20T05:14:21.476Z,76.89
2019-04-20T05:15:29.708Z,76.79
2019-04-20T05:16:34.775Z,76.79
2019-04-20T05:17:40.646Z,76.89
2019-04-20T05:18:42.077Z,77.00
2019-04-20T05:19:36.856Z,76.65
2019-04-20T05:20:37.169Z,77.06
2019-04-20T05:22:37.731Z,76.04
2019-04-20T05:23:30.638Z,76.04
2019-04-20T05:24:29.272Z,76.24
2019-04-20T05:25:30.962Z,75.93
2019-04-20T05:26:38.488Z,76.34
2019-04-20T05:27:35.769Z,76.34
2019-04-20T05:28:27.895Z,76.34
2019-04-20T05:29:23.175Z,75.93
2019-04-20T05:30:16.039Z,75.93
2019-04-20T05:31:15.465Z,76.45
2019-04-20T05:32:19.663Z,76.04
2019-04-20T05:33:24.299Z,76.24
2019-04-20T05:34:40.064Z,75.79
2019-04-20T05:35:39.237Z,76.14
2019-04-20T05:36:38.030Z,75.59
2019-04-20T05:37:41.308Z,75.59
2019-04-20T05:38:45.409Z,75.38
2019-04-20T05:39:37.994Z,75.69
2019-04-20T05:40:38.966Z,75.38
2019-04-20T05:41:33.210Z,75.38
2019-04-20T05:42:35.649Z,75.76
2019-04-20T05:43:32.992Z,76.00
2019-04-20T05:44:38.841Z,75.66
2019-04-20T05:45:28.357Z,75.76
2019-04-20T05:46:31.063Z,75.04
2019-04-20T05:47:37.751Z,74.73
2019-04-20T05:48:33.937Z,74.73
2019-04-20T05:49:40.372Z,74.53
2019-04-20T05:50:40.212Z,74.49
2019-04-20T05:51:45.055Z,73.78
2019-04-20T05:52:43.445Z,74.19
2019-04-20T05:53:42.597Z,73.81
2019-04-20T05:54:40.348Z,73.81
2019-04-20T05:55:33.349Z,73.98
2019-04-20T05:56:39.733Z,74.19
2019-04-20T05:57:40.070Z,73.47
2019-04-20T05:58:34.344Z,73.98
2019-04-20T05:59:34.834Z,73.47
2019-04-20T06:00:41.048Z,72.72
2019-04-20T06:01:40.789Z,72.72
2019-04-20T06:02:39.098Z,72.82
2019-04-20T06:03:35.350Z,72.72
2019-04-20T06:04:46.901Z,72.61
2019-04-20T06:05:38.889Z,72.31
2019-04-20T06:06:37.589Z,72.20
2019-04-20T06:07:40.322Z,72.38
2019-04-20T06:08:51.235Z,72.07
2019-04-20T06:09:33.635Z,71.86
2019-04-20T06:10:38.429Z,71.66
2019-04-20T06:12:02.742Z,71.56
2019-04-20T06:12:38.586Z,72.07
2019-04-20T06:13:27.547Z,71.83
2019-04-20T06:14:25.837Z,71.01
2019-04-20T06:15:37.098Z,71.12
2019-04-20T06:16:40.353Z,71.22
2019-04-20T06:17:41.097Z,70.71
2019-04-20T06:18:31.956Z,70.29
2019-04-20T06:19:36.982Z,71.29
2019-04-20T06:20:35.801Z,70.37
2019-04-20T06:21:41.462Z,70.16
2019-04-20T06:22:41.748Z,70.78
2019-04-20T06:23:45.610Z,69.85
2019-04-20T06:24:57.637Z,70.16
2019-04-20T06:25:44.133Z,69.75
2019-04-20T06:26:48.820Z,69.93
2019-04-20T06:27:39.892Z,69.31
2019-04-20T06:28:32.242Z,69.31
2019-04-20T06:29:38.009Z,69.42
2019-04-20T06:30:30.899Z,69.21
2019-04-20T06:31:39.824Z,69.62
2019-04-20T06:32:40.401Z,69.07
2019-04-20T06:33:55.230Z,68.97
2019-04-20T06:35:54.923Z,67.75
2019-04-20T06:36:38.621Z,67.21
2019-04-20T06:37:36.219Z,67.71
2019-04-20T06:38:56.262Z,67.82
2019-04-20T06:41:00.797Z,68.33
2019-04-20T06:41:56.751Z,68.30
2019-04-20T06:42:35.786Z,68.50
2019-04-20T06:43:43.342Z,68.40
2019-04-20T06:44:44.021Z,68.40
2019-04-20T06:45:44.410Z,69.01
2019-04-20T06:46:36.299Z,69.18
2019-04-20T06:47:39.301Z,68.37
2019-04-20T06:48:42.659Z,68.47
2019-04-20T06:49:36.804Z,68.47
2019-04-20T06:50:29.172Z,68.13
2019-04-20T06:51:36.855Z,67.32
2019-04-20T06:52:48.009Z,67.11
2019-04-20T06:53:36.920Z,67.82
2019-04-20T06:54:32.429Z,67.01
2019-04-20T06:56:35.814Z,67.62
2019-04-20T06:57:34.765Z,67.21
2019-04-20T06:58:49.913Z,67.79
2019-04-20T06:59:39.340Z,67.93
2019-04-20T07:00:35.050Z,67.49
2019-04-20T07:01:42.206Z,67.18
2019-04-20T07:02:56.365Z,66.06
2019-04-20T07:03:57.031Z,65.86
2019-04-20T07:04:42.018Z,65.52
2019-04-20T07:05:31.785Z,65.01
2019-04-20T07:07:38.781Z,65.31
2019-04-20T07:08:55.411Z,65.69
2019-04-20T07:09:48.419Z,65.11
2019-04-20T07:10:40.707Z,65.69
2019-04-20T07:11:35.453Z,65.49
2019-04-20T07:12:33.075Z,64.98
2019-04-20T07:13:27.976Z,64.67
2019-04-20T07:14:31.437Z,64.64
2019-04-20T07:15:28.719Z,64.54
2019-04-20T07:16:37.966Z,64.75
2019-04-20T07:17:45.647Z,64.81
2019-04-20T07:18:35.654Z,64.92
2019-04-20T07:19:31.714Z,64.92
2019-04-20T07:20:39.626Z,64.31
2019-04-20T07:21:48.468Z,63.77
2019-04-20T07:22:38.900Z,63.87
2019-04-20T07:23:53.400Z,63.26
2019-04-20T07:24:42.881Z,63.57
2019-04-20T07:25:38.561Z,62.85
2019-04-20T07:26:41.146Z,63.06
2019-04-20T07:27:35.344Z,62.85
2019-04-20T07:28:41.101Z,62.93
2019-04-20T07:29:40.723Z,62.72
2019-04-20T07:30:35.135Z,62.52
2019-04-20T07:31:29.381Z,62.93
2019-04-20T07:32:32.631Z,62.79
2019-04-20T07:33:37.528Z,63.00
2019-04-20T07:34:33.695Z,62.18
2019-04-20T07:35:35.636Z,62.39
2019-04-20T07:36:40.262Z,61.95
2019-04-20T07:38:10.043Z,60.83
2019-04-20T07:38:40.558Z,61.65
2019-04-20T07:39:32.850Z,61.75
2019-04-20T07:40:36.047Z,60.71
2019-04-20T07:41:42.991Z,60.74
2019-04-20T07:42:40.713Z,60.33
2019-04-20T07:43:32.034Z,60.81
2019-04-20T07:44:41.385Z,60.81
2019-04-20T07:46:51.089Z,60.17
2019-04-20T07:47:41.496Z,59.66
2019-04-20T07:48:33.826Z,59.26
2019-04-20T07:49:34.826Z,59.05
2019-04-20T07:50:32.119Z,58.42
2019-04-20T07:51:21.103Z,58.31
2019-04-20T07:52:14.389Z,58.22
2019-04-20T07:53:30.585Z,57.91
2019-04-20T07:54:39.850Z,58.11
2019-04-20T07:56:37.923Z,57.28
2019-04-20T07:57:32.895Z,57.07
2019-04-20T07:58:25.290Z,56.36
2019-04-20T07:59:26.482Z,56.26
2019-04-20T08:00:46.551Z,55.85
2019-04-20T08:01:47.832Z,56.54
2019-04-20T08:02:32.042Z,56.64
2019-04-20T08:03:39.077Z,55.83
2019-04-20T08:04:28.782Z,56.01
2019-04-20T08:05:25.468Z,55.60
2019-04-20T08:06:20.050Z,54.99
2019-04-20T08:07:14.588Z,54.26
2019-04-20T08:08:28.361Z,54.36
2019-04-20T08:09:26.117Z,54.23
2019-04-20T08:10:30.648Z,54.13
2019-04-20T08:11:36.883Z,54.33
2019-04-20T08:12:41.704Z,54.03
2019-04-20T08:13:39.074Z,54.00
2019-04-20T08:14:37.988Z,53.50
2019-04-20T08:15:47.218Z,53.90
2019-04-20T08:16:49.095Z,54.71
2019-04-20T08:17:42.309Z,54.08
2019-04-20T08:18:49.903Z,53.98
2019-04-20T08:19:36.692Z,52.97
2019-04-20T08:20:35.223Z,52.87
2019-04-20T08:21:37.357Z,52.84
2019-04-20T08:22:34.229Z,52.94
2019-04-20T08:23:33.690Z,53.05
2019-04-20T08:24:27.791Z,52.36
2019-04-20T08:25:25.300Z,52.36
2019-04-20T08:26:20.330Z,52.34
2019-04-20T08:27:16.164Z,52.03
2019-04-20T08:28:19.279Z,51.43
2019-04-20T08:29:23.918Z,50.92
2019-04-20T08:30:29.307Z,50.92
2019-04-20T08:31:24.515Z,51.43
2019-04-20T08:32:28.314Z,51.40
2019-04-20T08:33:33.578Z,50.90
2019-04-20T08:34:35.168Z,51.00
2019-04-20T08:35:40.796Z,50.29
2019-04-20T08:36:33.140Z,49.79
2019-04-20T08:37:38.003Z,50.37
2019-04-20T08:39:00.023Z,50.16
2019-04-20T08:39:46.729Z,49.66
2019-04-20T08:40:41.902Z,49.36
2019-04-20T08:41:29.788Z,49.04
2019-04-20T08:42:39.817Z,49.13
2019-04-20T08:43:42.396Z,48.41
2019-04-20T08:45:34.816Z,48.30
2019-04-20T08:46:34.961Z,48.30
2019-04-20T08:47:54.877Z,48.41
2019-04-20T08:48:36.044Z,47.58
2019-04-20T08:49:35.059Z,48.08
2019-04-20T08:50:36.278Z,46.95
2019-04-20T08:51:41.907Z,46.85
2019-04-20T08:52:55.192Z,46.47
2019-04-20T08:53:36.903Z,46.65
2019-04-20T08:54:32.638Z,46.34
2019-04-20T08:55:29.924Z,46.34
2019-04-20T08:56:25.911Z,44.93
2019-04-20T08:57:13.471Z,44.11
2019-04-20T08:58:12.039Z,44.53
2019-04-20T08:59:12.050Z,44.43
2019-04-20T09:00:13.199Z,44.83
2019-04-20T09:01:18.448Z,44.92
2019-04-20T09:02:15.754Z,44.21
2019-04-20T09:03:19.368Z,44.31
2019-04-20T09:04:19.926Z,43.80
2019-04-20T09:05:29.400Z,44.19
2019-04-20T09:06:29.415Z,43.36
2019-04-20T09:07:18.601Z,43.16
2019-04-20T09:08:19.704Z,43.14
2019-04-20T09:10:35.759Z,42.33
2019-04-20T09:11:38.457Z,41.83
2019-04-20T09:12:33.289Z,42.32
2019-04-20T09:13:24.480Z,41.41
2019-04-20T09:14:14.072Z,41.41
2019-04-20T09:15:12.560Z,40.91
2019-04-20T09:16:13.125Z,41.09
2019-04-20T09:17:21.204Z,41.19
2019-04-20T09:18:22.513Z,40.89
2019-04-20T09:19:14.922Z,39.98
2019-04-20T09:20:21.514Z,39.76
2019-04-20T09:21:24.295Z,39.98
2019-04-20T09:22:24.293Z,39.88
2019-04-20T09:23:26.586Z,40.39
2019-04-20T09:24:34.633Z,40.08
2019-04-20T09:26:32.899Z,40.39
2019-04-20T09:27:21.811Z,39.76
2019-04-20T09:28:23.839Z,39.58
2019-04-20T09:29:27.151Z,39.98
2019-04-20T09:30:24.367Z,40.08
2019-04-20T09:31:27.022Z,39.98
2019-04-20T09:32:31.393Z,40.28
2019-04-20T09:33:33.908Z,40.19
2019-04-20T09:34:24.741Z,39.97
2019-04-20T09:35:31.259Z,39.54
2019-04-20T09:36:30.742Z,40.33
2019-04-20T09:37:33.868Z,39.64
2019-04-20T09:38:30.588Z,39.73
2019-04-20T09:39:21.389Z,39.84
2019-04-20T09:40:32.116Z,40.03
2019-04-20T09:41:33.014Z,40.03
2019-04-20T09:42:12.523Z,40.83
2019-04-20T09:43:14.363Z,41.03
2019-04-20T09:44:13.412Z,40.91
2019-04-20T09:45:21.318Z,40.21
2019-04-20T09:46:13.679Z,40.91
2019-04-20T09:47:12.307Z,40.61
2019-04-20T09:48:19.961Z,40.91
2019-04-20T09:49:20.707Z,40.09
2019-04-20T09:50:29.271Z,40.19
2019-04-20T09:51:30.751Z,40.19
2019-04-20T09:52:28.238Z,40.21
2019-04-20T09:53:24.899Z,40.61
2019-04-20T09:54:32.613Z,41.21
2019-04-20T09:55:26.972Z,40.91
2019-04-20T09:56:28.070Z,41.11
2019-04-20T09:57:29.528Z,40.99
2019-04-20T09:58:25.764Z,40.59
2019-04-20T09:59:33.144Z,40.59
2019-04-20T10:00:31.203Z,40.57
2019-04-20T10:01:22.761Z,39.77
2019-04-20T10:02:19.861Z,39.27
2019-04-20T10:03:12.914Z,39.85
2019-04-20T10:04:11.323Z,40.15
2019-04-20T10:05:11.577Z,39.55
2019-04-20T10:06:11.687Z,39.45
2019-04-20T10:07:15.975Z,39.43
2019-04-20T10:08:13.514Z,39.53
2019-04-20T10:09:11.618Z,39.43
2019-04-20T10:10:23.925Z,39.11
2019-04-20T10:11:12.199Z,39.41
2019-04-20T10:12:11.308Z,39.22
2019-04-20T10:13:11.303Z,39.31
2019-04-20T10:14:12.338Z,39.23
2019-04-20T10:15:17.751Z,39.63
2019-04-20T10:16:13.464Z,38.53
2019-04-20T10:17:11.837Z,39.13
2019-04-20T10:18:12.058Z,39.22
2019-04-20T10:19:11.925Z,38.51
2019-04-20T10:20:19.390Z,38.11
2019-04-20T10:21:12.150Z,38.31
2019-04-20T10:22:11.078Z,38.01
2019-04-20T10:23:12.329Z,37.92
2019-04-20T10:24:11.054Z,38.91
2019-04-20T10:25:11.048Z,38.91
2019-04-20T10:26:12.050Z,38.59
2019-04-20T10:27:12.499Z,37.99
2019-04-20T10:28:11.771Z,37.99
2019-04-20T10:29:11.002Z,37.40
2019-04-20T10:30:12.431Z,37.58
2019-04-20T10:31:10.981Z,37.38
2019-04-20T10:32:15.512Z,36.66
2019-04-20T10:33:13.301Z,36.76
2019-04-20T10:34:11.620Z,36.84
2019-04-20T10:35:14.723Z,36.54
2019-04-20T10:36:11.948Z,36.15
2019-04-20T10:37:11.466Z,36.44
2019-04-20T10:38:11.500Z,36.15
2019-04-20T10:39:11.040Z,36.24
2019-04-20T10:40:11.471Z,36.15
2019-04-20T10:41:16.254Z,34.94
2019-04-20T10:42:12.247Z,35.05
2019-04-20T10:43:12.026Z,34.63
2019-04-20T10:44:11.225Z,35.13
2019-04-20T10:45:10.966Z,34.83
2019-04-20T10:46:11.110Z,35.35
2019-04-20T10:47:11.276Z,36.04
2019-04-20T10:48:10.953Z,35.24
2019-04-20T10:49:11.371Z,35.24
2019-04-20T10:50:11.322Z,35.23
2019-04-20T10:51:10.758Z,35.83
2019-04-20T10:52:11.668Z,34.83
2019-04-20T10:53:12.008Z,36.63
2019-04-20T10:54:12.103Z,35.81
2019-04-20T10:55:10.759Z,35.71
2019-04-20T10:56:11.684Z,35.01
2019-04-20T10:57:10.692Z,34.09
2019-04-20T10:58:11.455Z,33.78
2019-04-20T10:59:11.872Z,32.89
2019-04-20T11:00:10.707Z,33.18
2019-04-20T11:01:11.531Z,32.68
2019-04-20T11:02:11.985Z,34.28
2019-04-20T11:03:10.685Z,34.06
2019-04-20T11:04:10.631Z,32.77
2019-04-20T11:05:10.850Z,31.46
2019-04-20T11:06:11.046Z,31.26
2019-04-20T11:07:10.583Z,30.85
2019-04-20T11:08:10.724Z,31.64
2019-04-20T11:09:10.969Z,30.85
2019-04-20T11:10:16.659Z,30.56
2019-04-20T11:11:19.430Z,31.06
2019-04-20T11:12:12.469Z,30.25
2019-04-20T11:13:11.703Z,30.35
2019-04-20T11:14:19.075Z,31.15
2019-04-20T11:15:12.471Z,30.33
2019-04-20T11:16:10.782Z,30.04
2019-04-20T11:17:10.513Z,29.52
2019-04-20T11:18:11.323Z,30.04
2019-04-20T11:19:11.627Z,31.33
2019-04-20T11:20:10.442Z,30.52
2019-04-20T11:21:11.385Z,29.51
2019-04-20T11:22:10.480Z,28.41
2019-04-20T11:23:10.746Z,28.90
2019-04-20T11:24:10.419Z,28.80
2019-04-20T11:25:10.411Z,29.10
2019-04-20T11:26:10.551Z,28.90
2019-04-20T11:27:10.365Z,30.19
2019-04-20T11:28:10.352Z,30.11
2019-04-20T11:29:10.610Z,29.71
2019-04-20T11:30:10.343Z,29.81
2019-04-20T11:31:10.379Z,29.51
2019-04-20T11:32:12.379Z,30.11
2019-04-20T11:33:10.300Z,29.51
2019-04-20T11:34:10.395Z,29.58
2019-04-20T11:35:21.403Z,29.67
2019-04-20T11:36:11.259Z,28.17
2019-04-20T11:37:11.003Z,28.06
2019-04-20T11:38:13.437Z,26.87
2019-04-20T11:39:11.286Z,27.37
2019-04-20T11:40:10.907Z,26.28
2019-04-20T11:41:16.279Z,26.76
2019-04-20T11:42:11.853Z,27.56
2019-04-20T11:43:11.492Z,27.36
2019-04-20T11:44:11.605Z,26.86
2019-04-20T11:45:10.914Z,26.17
2019-04-20T11:46:10.149Z,27.36
2019-04-20T11:47:10.581Z,27.57
2019-04-20T11:48:11.541Z,27.27
2019-04-20T11:49:10.115Z,26.68
2019-04-20T11:50:11.385Z,27.16
2019-04-20T11:51:10.099Z,26.86
2019-04-20T11:52:10.084Z,27.06
2019-04-20T11:53:11.242Z,27.04
2019-04-20T11:54:10.415Z,27.33
2019-04-20T11:55:10.525Z,26.44
2019-04-20T11:56:14.478Z,26.14
2019-04-20T11:57:11.354Z,26.14
2019-04-20T11:58:10.147Z,25.65
2019-04-20T11:59:12.382Z,24.55
2019-04-20T12:00:11.038Z,24.66
2019-04-20T12:01:14.240Z,24.36
2019-04-20T12:02:19.650Z,25.16
2019-04-20T12:03:23.029Z,25.26
2019-04-20T12:04:24.553Z,25.46
2019-04-20T12:05:21.316Z,24.87
2019-04-20T12:06:10.928Z,25.16
2019-04-20T12:07:11.066Z,24.87
2019-04-20T12:08:11.171Z,25.27
2019-04-20T12:09:10.844Z,25.26
2019-04-20T12:10:14.946Z,25.26
2019-04-20T12:11:22.771Z,25.07
2019-04-20T12:12:22.389Z,24.97
2019-04-20T12:13:13.342Z,23.97
2019-04-20T12:14:10.397Z,24.29
2019-04-20T12:15:10.579Z,25.39
2019-04-20T12:16:09.934Z,24.29
2019-04-20T12:17:09.811Z,24.48
2019-04-20T12:18:09.793Z,24.57
2019-04-20T12:19:10.542Z,24.18
2019-04-20T12:20:10.101Z,24.07
2019-04-20T12:21:10.622Z,24.07
2019-04-20T12:22:09.787Z,24.66
2019-04-20T12:23:10.539Z,23.95
2019-04-20T12:24:10.106Z,23.75
2019-04-20T12:25:10.054Z,24.14
2019-04-20T12:26:10.838Z,24.03
2019-04-20T12:27:10.117Z,24.51
2019-04-20T12:28:09.690Z,23.11
2019-04-20T12:29:09.961Z,22.73
2019-04-20T12:30:09.965Z,21.74
2019-04-20T12:31:14.754Z,22.04
2019-04-20T12:32:10.833Z,21.94
2019-04-20T12:33:09.635Z,23.03
2019-04-20T12:34:10.518Z,22.15
2019-04-20T12:35:09.604Z,21.64
2019-04-20T12:36:10.261Z,21.74
2019-04-20T12:37:09.591Z,21.55
2019-04-20T12:38:10.510Z,21.05
2019-04-20T12:39:10.885Z,21.36
2019-04-20T12:40:09.565Z,21.46
2019-04-20T12:41:11.490Z,21.06
2019-04-20T12:42:11.098Z,21.85
2019-04-20T12:43:10.986Z,21.17
2019-04-20T12:44:09.965Z,21.36
2019-04-20T12:45:09.505Z,21.85
2019-04-20T12:46:09.771Z,21.74
2019-04-20T12:47:10.039Z,21.34
2019-04-20T12:48:09.487Z,21.33
2019-04-20T12:49:09.591Z,21.42
2019-04-20T12:50:09.768Z,20.54
2019-04-20T12:51:09.441Z,20.53
2019-04-20T12:52:10.269Z,20.73
2019-04-20T12:53:10.656Z,20.14
2019-04-20T12:54:10.765Z,20.14
2019-04-20T12:55:10.505Z,20.42
2019-04-20T12:56:10.575Z,20.21
2019-04-20T12:57:09.373Z,20.41
2019-04-20T12:58:10.507Z,20.32
2019-04-20T12:59:09.684Z,20.80
2019-04-20T13:00:09.815Z,20.22
2019-04-20T13:01:10.127Z,21.23
2019-04-20T13:02:09.318Z,20.84
2019-04-20T13:03:09.578Z,21.35
2019-04-20T13:04:09.507Z,21.75
2019-04-20T13:05:09.401Z,21.85
2019-04-20T13:06:09.942Z,21.46
2019-04-20T13:07:10.105Z,21.84
2019-04-20T13:08:09.384Z,21.64
2019-04-20T13:09:10.425Z,21.53
2019-04-20T13:10:09.839Z,21.33
2019-04-20T13:11:10.784Z,20.33